Time;durP1;ratioP1;P1;durP2;ratioP2;P2;SDS_P1;SDS_P2;PMS_P1;PMS_P2;Temp;Humidity;BMP_temperature;BMP_pressure;BME280_temperature;BME280_humidity;BME280_pressure;Samples;Min_cycle;Max_cycle;Signal;HPM_P1;HPM_P2
2021/09/04 00:00:33;;;;;;;;;;;17.10;94.40;;;16.80;86.55;100810.97;4989915;28;19930;-69
2021/09/04 00:03:00;;;;;;;;;;;17.10;94.40;;;16.76;86.38;100809.75;4990044;28;20394;-69
2021/09/04 00:05:28;;;;;;;;;;;17.00;94.20;;;16.74;86.42;100800.88;4989967;28;19934;-69
2021/09/04 00:07:55;;;;;;;;;;;17.00;94.30;;;16.74;86.09;100805.53;4989543;28;20313;-69
2021/09/04 00:10:24;;;;;;;;;;;17.00;94.40;;;16.68;86.20;100801.75;4989734;28;19926;-69
2021/09/04 00:12:52;;;;;;;;;;;16.90;94.30;;;16.66;86.44;100809.38;4989296;28;19929;-69
2021/09/04 00:15:21;;;;;;;;;;;16.90;94.40;;;16.64;86.64;100799.63;4989355;28;20363;-69
2021/09/04 00:17:50;;;;;;;;;;;16.90;94.70;;;16.64;87.04;100795.00;4989472;28;19925;-69
2021/09/04 00:20:18;;;;;;;;;;;16.90;94.80;;;16.64;87.41;100794.13;4989096;28;20012;-69
2021/09/04 00:22:46;;;;;;;;;;;16.90;95.30;;;16.64;87.19;100789.50;4989211;28;19933;-69
2021/09/04 00:25:24;;;;;;;;;;;16.90;95.10;;;16.64;87.67;100789.50;4988939;28;19930;-69
2021/09/04 00:27:51;;;;;;;;;;;16.90;95.30;;;16.64;87.35;100792.25;4971849;28;20421;-69
2021/09/04 00:30:18;;;;;;;;;;;17.00;95.20;;;16.62;87.47;100788.88;4995129;28;20022;-69
2021/09/04 00:32:58;;;;;;;;;;;17.00;95.00;;;16.62;87.37;100786.13;5008727;28;19929;-69
2021/09/04 00:38:50;;;;;;;;;;;16.90;95.30;;;16.61;87.67;100784.44;4928992;29;19927;-69
2021/09/04 00:41:39;;;;;;;;;;;17.00;95.40;;;16.57;88.18;100784.03;5004967;28;19940;-69
2021/09/04 00:44:38;;;;;;;;;;;17.00;95.50;;;16.58;87.85;100773.88;5008772;28;19951;-69
2021/09/04 00:47:34;;;;;;;;;;;16.90;95.30;;;16.57;87.79;100778.53;5007247;28;20368;-69
2021/09/04 00:50:12;;;;;;;;;;;16.90;95.50;;;16.57;87.94;100775.78;5007784;28;19929;-69
2021/09/04 00:53:01;;;;;;;;;;;16.90;95.40;;;16.54;87.87;100778.13;5007974;28;20470;-69
2021/09/04 00:55:28;;;;;;;;;;;16.90;95.60;;;16.54;87.87;100770.72;4995541;28;19929;-69
2021/09/04 00:57:56;;;;;;;;;;;16.90;95.40;;;16.53;88.00;100765.47;5008365;28;19936;-69
2021/09/04 01:00:27;;;;;;;;;;;16.90;95.70;;;16.53;88.28;100765.47;4990504;28;19929;-69
2021/09/04 01:02:54;;;;;;;;;;;16.90;95.90;;;16.52;88.16;100758.25;5008133;28;19933;-69
2021/09/04 01:05:33;;;;;;;;;;;16.80;95.70;;;16.51;88.22;100762.09;5008069;28;20003;-69
2021/09/04 01:08:03;;;;;;;;;;;16.80;95.70;;;16.49;88.80;100758.72;4990397;28;20695;-69
2021/09/04 01:10:30;;;;;;;;;;;16.90;95.90;;;16.49;88.17;100758.72;5008098;28;19969;-69
2021/09/04 01:12:58;;;;;;;;;;;16.80;95.60;;;16.45;88.15;100760.19;5008346;28;19933;-69
2021/09/04 01:15:25;;;;;;;;;;;16.80;95.70;;;16.46;88.24;100757.22;5008116;28;20464;-69
2021/09/04 01:17:52;;;;;;;;;;;16.80;95.70;;;16.45;88.49;100762.94;5008117;28;19929;-69
2021/09/04 01:20:19;;;;;;;;;;;16.80;95.80;;;16.44;88.16;100755.78;5007803;28;19973;-69
2021/09/04 01:22:48;;;;;;;;;;;16.80;95.80;;;16.42;88.19;100759.56;5007640;28;19956;-69
2021/09/04 01:25:22;;;;;;;;;;;16.80;95.70;;;16.42;88.09;100759.56;4997956;28;20456;-69
2021/09/04 01:27:51;;;;;;;;;;;16.70;95.60;;;16.41;87.85;100757.03;4988033;28;19957;-69
2021/09/04 01:30:18;;;;;;;;;;;16.70;95.70;;;16.41;87.45;100768.03;4999128;28;20020;-69
2021/09/04 01:32:45;;;;;;;;;;;16.70;95.50;;;16.37;87.51;100764.88;5027075;28;19932;-69
2021/09/04 01:35:14;;;;;;;;;;;16.60;95.50;;;16.35;87.56;100764.22;5026972;28;19929;-69
2021/09/04 01:37:41;;;;;;;;;;;16.60;95.80;;;16.33;87.90;100769.09;5027312;28;20293;-69
2021/09/04 01:40:10;;;;;;;;;;;16.60;96.00;;;16.33;87.99;100769.09;5027434;28;19929;-69
2021/09/04 01:42:37;;;;;;;;;;;16.60;95.90;;;16.31;88.15;100768.47;5026873;28;19964;-69
2021/09/04 01:45:07;;;;;;;;;;;16.60;96.00;;;16.29;88.17;100765.09;5027309;28;19929;-69
2021/09/04 01:47:34;;;;;;;;;;;16.60;95.80;;;16.29;88.09;100765.09;5027218;28;20042;-69
2021/09/04 01:50:02;;;;;;;;;;;16.60;95.80;;;16.27;88.24;100772.72;5027397;28;19926;-69
2021/09/04 01:52:29;;;;;;;;;;;16.50;96.10;;;16.23;88.44;100760.47;5026997;28;19933;-70
2021/09/04 01:54:56;;;;;;;;;;;16.50;96.50;;;16.25;88.81;100763.03;5027249;28;19931;-69
2021/09/04 01:57:23;;;;;;;;;;;16.50;96.50;;;16.23;88.67;100757.75;5027082;28;20464;-69
2021/09/04 01:59:50;;;;;;;;;;;16.60;96.50;;;16.23;89.08;100752.25;5026968;28;19930;-69
2021/09/04 02:02:18;;;;;;;;;;;16.50;96.90;;;16.22;89.22;100753.28;5026600;28;19933;-69
2021/09/04 02:04:45;;;;;;;;;;;16.60;96.80;;;16.20;89.39;100755.41;5026552;28;19925;-69
2021/09/04 02:07:13;;;;;;;;;;;16.60;96.80;;;16.19;89.60;100749.09;5026682;28;19937;-69
2021/09/04 02:09:42;;;;;;;;;;;16.50;97.10;;;16.19;89.82;100759.22;5026612;28;19929;-69
2021/09/04 02:12:12;;;;;;;;;;;16.50;97.30;;;16.19;89.81;100751.00;5026609;28;19964;-69
2021/09/04 02:14:40;;;;;;;;;;;16.50;97.50;;;16.18;89.96;100752.03;5026468;28;20384;-69
2021/09/04 02:17:11;;;;;;;;;;;16.50;97.60;;;16.20;89.80;100749.91;5026701;28;19960;-69
2021/09/04 02:19:47;;;;;;;;;;;16.50;97.60;;;16.18;90.05;100746.56;5026568;28;19929;-69
2021/09/04 02:22:15;;;;;;;;;;;16.50;97.70;;;16.16;90.21;100748.66;5026649;28;19929;-69
2021/09/04 02:24:42;;;;;;;;;;;16.50;97.70;;;16.17;90.15;100751.22;5017419;28;19936;-69
2021/09/04 02:27:10;;;;;;;;;;;16.50;97.80;;;16.17;89.98;100755.88;4987311;28;19936;-69
2021/09/04 02:29:42;;;;;;;;;;;16.50;97.70;;;16.17;90.27;100750.38;4987558;28;19930;-69
2021/09/04 02:32:31;;;;;;;;;;;16.50;97.80;;;16.16;90.29;100744.03;5004494;28;19945;-69
2021/09/04 02:35:19;;;;;;;;;;;16.50;97.90;;;16.16;90.32;100748.66;5006684;28;19936;-69
2021/09/04 02:37:46;;;;;;;;;;;16.50;97.80;;;16.16;90.29;100743.19;5009865;28;19925;-69
2021/09/04 02:40:14;;;;;;;;;;;16.50;97.60;;;16.15;90.48;100747.84;5010660;28;20440;-69
2021/09/04 02:42:41;;;;;;;;;;;16.40;97.50;;;16.15;90.60;100744.25;5010111;28;20015;-69
2021/09/04 02:45:09;;;;;;;;;;;16.60;97.50;;;16.14;90.84;100748.88;5022960;22;19934;-65
2021/09/04 02:47:38;;;;;;;;;;;16.70;97.50;;;16.17;90.89;100739.38;4991208;28;19957;-65
2021/09/04 02:50:06;;;;;;;;;;;16.60;97.30;;;16.16;90.71;100737.69;4991292;28;19930;-64
2021/09/04 02:52:38;;;;;;;;;;;16.70;97.40;;;16.15;90.94;100734.09;4990778;28;19930;-64
2021/09/04 02:55:06;;;;;;;;;;;16.70;97.60;;;16.17;90.95;100733.91;4991501;28;19930;-64
2021/09/04 02:57:38;;;;;;;;;;;16.70;97.50;;;16.18;91.02;100735.56;4991110;28;19936;-64
2021/09/04 03:00:16;;;;;;;;;;;16.70;97.40;;;16.19;90.89;100726.28;4992117;28;20030;-65
2021/09/04 03:02:54;;;;;;;;;;;16.70;97.40;;;16.21;90.92;100729.66;4991225;28;20663;-65
2021/09/04 03:05:24;;;;;;;;;;;16.80;97.40;;;16.18;91.21;100741.94;4991356;28;19938;-65
2021/09/04 03:07:59;;;;;;;;;;;16.70;97.40;;;16.18;91.02;100743.81;4991367;28;19984;-64
2021/09/04 03:10:26;;;;;;;;;;;16.70;97.60;;;16.14;91.53;100742.56;4990888;28;20408;-64
2021/09/04 03:12:56;;;;;;;;;;;16.70;97.50;;;16.15;91.40;100749.75;4991055;28;19984;-64
2021/09/04 03:15:26;;;;;;;;;;;16.70;97.50;;;16.17;91.42;100750.38;4990654;28;20349;-64
2021/09/04 03:17:55;;;;;;;;;;;16.70;97.50;;;16.13;91.66;100752.69;4990794;28;19942;-65
2021/09/04 03:20:26;;;;;;;;;;;16.70;97.40;;;16.12;91.52;100745.50;4990715;28;19941;-65
2021/09/04 03:22:53;;;;;;;;;;;16.70;97.30;;;16.13;91.52;100758.19;4990486;28;19930;-64
2021/09/04 03:25:21;;;;;;;;;;;16.70;97.10;;;16.09;91.70;100753.34;4990466;28;19937;-64
2021/09/04 03:27:49;;;;;;;;;;;16.70;97.30;;;16.07;91.66;100750.81;4990690;28;20315;-65
2021/09/04 03:30:17;;;;;;;;;;;16.70;97.40;;;16.09;91.51;100747.84;4990993;28;19925;-65
2021/09/04 03:32:45;;;;;;;;;;;16.60;97.30;;;16.09;91.67;100753.34;4990796;28;19934;-65
2021/09/04 03:35:13;;;;;;;;;;;16.60;97.30;;;16.10;91.57;100744.06;4990810;28;19936;-65
2021/09/04 03:37:40;;;;;;;;;;;16.60;97.40;;;16.11;91.39;100748.50;4990773;28;20012;-65
2021/09/04 03:40:10;;;;;;;;;;;16.60;97.40;;;16.07;91.51;100748.09;4990755;28;20725;-65
2021/09/04 03:42:38;;;;;;;;;;;16.50;97.60;;;16.08;91.36;100751.66;4972741;28;19926;-65
2021/09/04 03:45:07;;;;;;;;;;;16.50;97.90;;;16.01;91.59;100749.78;4990724;28;19929;-65
2021/09/04 03:47:34;;;;;;;;;;;16.50;97.80;;;15.99;91.72;100738.19;4990207;28;20035;-65
2021/09/04 03:50:02;;;;;;;;;;;16.50;97.90;;;16.01;91.52;100746.16;4990880;28;19925;-65
2021/09/04 03:52:30;;;;;;;;;;;16.40;97.80;;;16.01;91.46;100736.06;4990083;28;19984;-65
2021/09/04 03:54:57;;;;;;;;;;;16.40;97.80;;;16.01;91.25;100741.56;4990489;28;20693;-65
2021/09/04 03:57:24;;;;;;;;;;;16.30;98.00;;;15.99;91.24;100743.66;4990584;28;20283;-65
2021/09/04 03:59:53;;;;;;;;;;;16.30;98.10;;;16.00;91.29;100742.59;4990106;28;19929;-65
2021/09/04 04:02:20;;;;;;;;;;;16.30;98.30;;;16.01;91.12;100740.69;4989908;28;19957;-65
2021/09/04 04:04:47;;;;;;;;;;;16.40;98.10;;;16.03;90.95;100755.91;4989973;28;19926;-65
2021/09/04 04:07:14;;;;;;;;;;;16.40;98.10;;;15.99;91.03;100753.78;4989964;28;19930;-65
2021/09/04 04:09:42;;;;;;;;;;;16.40;98.00;;;15.98;91.09;100752.13;4990093;28;19981;-64
2021/09/04 04:12:10;;;;;;;;;;;16.40;97.80;;;15.95;91.10;100769.00;4989997;28;20401;-65
2021/09/04 04:14:38;;;;;;;;;;;16.30;98.00;;;15.94;91.19;100759.09;4989899;28;19925;-65
2021/09/04 04:17:07;;;;;;;;;;;16.30;98.00;;;15.93;91.05;100754.66;4990266;28;20472;-64
2021/09/04 04:19:34;;;;;;;;;;;16.30;98.00;;;15.89;91.24;100753.38;4972362;28;20438;-65
2021/09/04 04:22:03;;;;;;;;;;;16.20;98.10;;;15.87;91.24;100752.75;4989626;28;19930;-65
2021/09/04 04:24:30;;;;;;;;;;;16.20;98.00;;;15.87;91.12;100761.00;4990132;28;19984;-64
2021/09/04 04:27:01;;;;;;;;;;;16.20;98.30;;;15.88;91.09;100758.03;4989596;28;19930;-65
2021/09/04 04:29:28;;;;;;;;;;;16.20;98.20;;;15.84;91.01;100765.03;4989405;28;19941;-65
2021/09/04 04:31:56;;;;;;;;;;;16.10;98.50;;;15.77;91.25;100764.19;4988851;28;19930;-64
2021/09/04 04:34:26;;;;;;;;;;;16.10;98.70;;;15.75;91.50;100756.16;4989712;28;19929;-65
2021/09/04 04:36:53;;;;;;;;;;;16.10;98.80;;;15.77;91.36;100761.44;4989044;28;20405;-65
2021/09/04 04:39:20;;;;;;;;;;;16.00;98.70;;;15.76;91.41;100757.84;4989419;28;19945;-65
2021/09/04 04:41:48;;;;;;;;;;;16.00;98.90;;;15.79;91.29;100764.81;4989146;28;20360;-65
2021/09/04 04:44:16;;;;;;;;;;;16.10;98.90;;;15.78;91.16;100763.09;4998189;28;19934;-65
2021/09/04 04:46:44;;;;;;;;;;;16.10;98.80;;;15.78;90.91;100769.47;5008902;28;19984;-65
2021/09/04 04:49:11;;;;;;;;;;;16.10;98.80;;;15.80;91.03;100771.97;5008677;28;19929;-65
2021/09/04 04:51:41;;;;;;;;;;;16.10;98.80;;;15.79;90.97;100775.78;4990942;28;20016;-66
2021/09/04 04:54:09;;;;;;;;;;;16.00;98.70;;;15.78;91.00;100777.69;5008719;28;19936;-65
2021/09/04 04:56:37;;;;;;;;;;;16.00;98.80;;;15.77;90.93;100783.38;5008611;28;19929;-65
2021/09/04 04:59:04;;;;;;;;;;;16.00;98.90;;;15.76;91.07;100776.19;5008534;28;19979;-65
2021/09/04 05:01:31;;;;;;;;;;;16.00;98.80;;;15.73;91.02;100777.47;5007717;28;19930;-65
2021/09/04 05:03:58;;;;;;;;;;;16.00;98.80;;;15.73;91.13;100787.59;5008888;28;19925;-65
2021/09/04 05:06:25;;;;;;;;;;;16.00;98.70;;;15.71;91.06;100778.72;4991070;28;20369;-64
2021/09/04 05:08:55;;;;;;;;;;;16.00;98.70;;;15.71;91.05;100781.47;5008583;28;20337;-65
2021/09/04 05:11:23;;;;;;;;;;;15.90;98.90;;;15.62;91.66;100781.66;5008109;28;19956;-65
2021/09/04 05:13:52;;;;;;;;;;;15.90;98.90;;;15.62;91.57;100792.63;5007936;28;20559;-65
2021/09/04 05:16:20;;;;;;;;;;;15.80;99.40;;;15.60;91.65;100786.53;5008088;28;19971;-65
2021/09/04 05:18:48;;;;;;;;;;;15.80;99.60;;;15.59;91.58;100787.59;5008541;28;19925;-66
2021/09/04 05:21:28;;;;;;;;;;;15.80;99.50;;;15.60;91.55;100789.25;5008414;28;19929;-67
2021/09/04 05:23:57;;;;;;;;;;;15.80;99.50;;;15.60;91.70;100786.53;4989157;28;19930;-66
2021/09/04 05:26:25;;;;;;;;;;;15.80;99.50;;;15.60;91.66;100788.44;4988544;28;20405;-66
2021/09/04 05:28:52;;;;;;;;;;;15.80;99.50;;;15.59;91.62;100797.69;4989079;28;19929;-66
2021/09/04 05:31:19;;;;;;;;;;;15.80;99.80;;;15.54;91.64;100795.59;5024295;28;19998;-66
2021/09/04 05:33:47;;;;;;;;;;;15.80;99.70;;;15.50;92.12;100791.59;5028338;28;20455;-66
2021/09/04 05:36:14;;;;;;;;;;;15.70;99.90;;;15.54;91.86;100797.50;5028218;28;20000;-66
2021/09/04 05:38:41;;;;;;;;;;;15.70;99.90;;;15.55;91.79;100797.28;5028038;28;19929;-66
2021/09/04 05:41:09;;;;;;;;;;;15.80;99.80;;;15.55;91.95;100805.50;5028079;28;20359;-66
2021/09/04 05:43:36;;;;;;;;;;;15.80;99.80;;;15.54;91.79;100801.09;5028057;28;19968;-67
2021/09/04 05:46:03;;;;;;;;;;;15.80;99.60;;;15.55;91.58;100800.00;5028074;28;19957;-66
2021/09/04 05:48:43;;;;;;;;;;;15.80;99.60;;;15.54;91.66;100803.00;5027932;28;19929;-66
2021/09/04 05:51:28;;;;;;;;;;;15.80;99.20;;;15.58;91.85;100813.31;5027767;28;20397;-67
2021/09/04 05:54:11;;;;;;;;;;;15.90;99.30;;;15.58;91.60;100813.31;5024154;28;20319;-66
2021/09/04 05:56:46;;;;;;;;;;;15.90;99.10;;;15.58;91.66;100812.50;5009414;28;19935;-67
2021/09/04 05:59:28;;;;;;;;;;;15.80;99.10;;;15.55;91.56;100813.72;5026333;28;19929;-67
2021/09/04 06:02:08;;;;;;;;;;;15.80;99.20;;;15.54;91.51;100816.72;5027908;28;19933;-67
2021/09/04 06:04:50;;;;;;;;;;;15.80;99.20;;;15.54;91.45;100814.81;5014772;28;19930;-64
2021/09/04 06:07:48;;;;;;;;;;;15.80;99.20;;;15.49;91.37;100811.84;4998776;28;19930;-64
2021/09/04 06:13:58;;;;;;;;;;;15.70;98.60;;;15.46;90.92;100809.53;5008689;28;19930;-64
2021/09/04 06:16:32;;;;;;;;;;;15.70;98.70;;;15.48;90.72;100812.03;4994105;28;19929;-64
2021/09/04 06:19:07;;;;;;;;;;;15.70;98.60;;;15.48;90.61;100812.03;5012386;28;19926;-65
2021/09/04 06:21:37;;;;;;;;;;;15.70;98.70;;;15.38;91.05;100815.19;5011420;28;19931;-64
2021/09/04 06:24:05;;;;;;;;;;;15.70;98.70;;;15.37;91.08;100810.78;5011859;28;19965;-64
2021/09/04 06:26:32;;;;;;;;;;;15.70;98.80;;;15.37;91.15;100805.31;5011808;28;20024;-64
2021/09/04 06:29:21;;;;;;;;;;;15.60;98.90;;;15.39;91.19;100811.41;5011511;28;19956;-65
2021/09/04 06:32:12;;;;;;;;;;;15.50;99.20;;;15.41;90.88;100812.03;4994019;28;19930;-65
2021/09/04 06:34:58;;;;;;;;;;;15.60;99.30;;;15.40;90.93;100816.69;4991576;28;19934;-65
2021/09/04 06:37:29;;;;;;;;;;;15.60;99.20;;;15.40;90.76;100810.34;4991663;28;20735;-65
2021/09/04 06:40:00;;;;;;;;;;;15.60;99.10;;;15.42;90.72;100813.72;4992276;28;19938;-65
2021/09/04 06:42:32;;;;;;;;;;;15.70;99.00;;;15.40;90.71;100821.31;4991599;28;20436;-65
2021/09/04 06:45:05;;;;;;;;;;;15.70;98.60;;;15.35;90.81;100819.22;4985870;28;19941;-65
2021/09/04 06:47:32;;;;;;;;;;;15.70;98.40;;;15.34;90.62;100822.16;5011282;28;20310;-65
2021/09/04 06:49:59;;;;;;;;;;;15.60;98.40;;;15.31;90.85;100836.31;5011245;28;20446;-65
2021/09/04 06:52:26;;;;;;;;;;;15.50;98.90;;;15.30;90.84;100837.34;4991541;28;20433;-65
2021/09/04 06:54:54;;;;;;;;;;;15.50;98.70;;;15.30;90.65;100834.59;4991874;28;20385;-65
2021/09/04 06:57:21;;;;;;;;;;;15.50;98.90;;;15.27;90.64;100833.13;4991854;28;20385;-65
2021/09/04 06:59:48;;;;;;;;;;;15.50;99.00;;;15.31;90.61;100831.66;4991520;28;20393;-64
2021/09/04 07:02:16;;;;;;;;;;;15.50;99.10;;;15.31;90.60;100826.19;5006822;28;20012;-65
2021/09/04 07:04:43;;;;;;;;;;;15.60;98.80;;;15.31;90.69;100828.09;5003031;28;19929;-65
2021/09/04 07:07:10;;;;;;;;;;;15.60;98.80;;;15.30;90.92;100831.84;4991224;28;19969;-65
2021/09/04 07:09:38;;;;;;;;;;;15.60;98.60;;;15.31;90.88;100823.44;4990208;28;19984;-65
2021/09/04 07:12:05;;;;;;;;;;;15.60;98.70;;;15.34;90.75;100820.25;4991022;28;20031;-65
2021/09/04 07:14:33;;;;;;;;;;;15.60;98.40;;;15.29;91.11;100824.66;4991172;28;19930;-65
2021/09/04 07:17:00;;;;;;;;;;;15.60;98.80;;;15.30;91.12;100826.38;4991323;28;19930;-65
2021/09/04 07:19:28;;;;;;;;;;;15.60;98.80;;;15.28;91.26;100818.34;4991317;28;19936;-65
2021/09/04 07:21:55;;;;;;;;;;;15.60;98.90;;;15.32;91.13;100819.63;4990938;28;19929;-65
2021/09/04 07:24:22;;;;;;;;;;;15.60;98.70;;;15.31;91.31;100828.09;4990259;28;20675;-65
2021/09/04 07:26:49;;;;;;;;;;;15.70;98.70;;;15.30;91.50;100818.16;4991002;28;19934;-64
2021/09/04 07:29:16;;;;;;;;;;;15.80;98.70;;;15.35;91.52;100819.22;4993162;28;19965;-65
2021/09/04 07:31:46;;;;;;;;;;;15.80;98.50;;;15.38;91.57;100818.81;5030459;28;20761;-65
2021/09/04 07:34:13;;;;;;;;;;;15.80;98.30;;;15.40;91.41;100826.81;5030664;28;19983;-65
2021/09/04 07:36:41;;;;;;;;;;;15.90;98.30;;;15.40;91.31;100829.53;5030647;28;19963;-65
2021/09/04 07:39:08;;;;;;;;;;;15.90;97.80;;;15.39;91.18;100827.88;5030625;28;20019;-65
2021/09/04 07:41:36;;;;;;;;;;;15.90;97.60;;;15.40;91.02;100838.63;5029974;28;19965;-65
2021/09/04 07:44:03;;;;;;;;;;;15.90;97.70;;;15.38;90.78;100842.63;5030012;28;20750;-65
2021/09/04 07:46:30;;;;;;;;;;;15.80;97.70;;;15.36;90.88;100844.72;5030039;28;19925;-64
2021/09/04 07:48:57;;;;;;;;;;;15.70;98.40;;;15.39;90.97;100844.31;5029255;28;19929;-65
2021/09/04 07:51:24;;;;;;;;;;;15.80;98.40;;;15.41;91.00;100839.47;5029263;28;20016;-65
2021/09/04 07:53:53;;;;;;;;;;;15.80;98.10;;;15.41;91.32;100839.47;5029712;28;19991;-65
2021/09/04 07:56:20;;;;;;;;;;;15.90;98.40;;;15.39;91.78;100845.16;5029414;28;19928;-65
2021/09/04 07:58:47;;;;;;;;;;;16.00;98.10;;;15.44;91.67;100850.03;5029533;28;19979;-65
2021/09/04 08:01:14;;;;;;;;;;;16.00;97.80;;;15.43;91.49;100840.94;5029279;28;19971;-65
2021/09/04 08:03:41;;;;;;;;;;;16.00;97.80;;;15.47;91.73;100846.03;5029674;28;19935;-66
2021/09/04 08:06:08;;;;;;;;;;;16.00;98.00;;;15.48;91.61;100850.44;5019898;28;19933;-65
2021/09/04 08:08:36;;;;;;;;;;;16.00;97.90;;;15.47;91.64;100860.56;5009646;28;19976;-65
2021/09/04 08:11:05;;;;;;;;;;;16.00;97.90;;;15.48;91.74;100848.56;4991385;28;20008;-65
2021/09/04 08:13:32;;;;;;;;;;;16.10;97.90;;;15.49;91.71;100858.47;5009611;28;19929;-65
2021/09/04 08:15:59;;;;;;;;;;;16.10;97.70;;;15.47;91.59;100855.09;4998913;28;20497;-65
2021/09/04 08:18:26;;;;;;;;;;;16.00;97.80;;;15.48;91.53;100858.66;4983814;28;20381;-65
2021/09/04 08:20:53;;;;;;;;;;;16.00;97.80;;;15.48;91.52;100856.78;4988629;28;19931;-65
2021/09/04 08:23:20;;;;;;;;;;;16.00;97.90;;;15.49;91.64;100861.22;4992679;28;19930;-65
2021/09/04 08:25:47;;;;;;;;;;;16.00;98.10;;;15.51;91.57;100856.34;4993167;28;20012;-65
2021/09/04 08:28:16;;;;;;;;;;;16.00;97.80;;;15.49;91.78;100846.66;4993678;28;20000;-65
2021/09/04 08:30:43;;;;;;;;;;;16.00;97.80;;;15.52;91.67;100865.47;4997831;28;20450;-65
2021/09/04 08:33:10;;;;;;;;;;;16.00;98.00;;;15.51;91.56;100856.34;4994812;28;19957;-65
2021/09/04 08:35:37;;;;;;;;;;;16.00;98.20;;;15.52;91.84;100858.06;5008708;28;19964;-65
2021/09/04 08:38:07;;;;;;;;;;;16.00;98.00;;;15.53;91.88;100857.00;5002746;28;19966;-65
2021/09/04 08:40:34;;;;;;;;;;;16.10;97.70;;;15.51;91.70;100861.84;4994646;28;19935;-65
2021/09/04 08:43:02;;;;;;;;;;;16.10;97.90;;;15.53;91.36;100859.72;4999954;28;20449;-65
2021/09/04 08:48:08;;;;;;;;;;;16.10;97.90;;;15.52;91.90;100868.19;4991726;28;19983;-67
2021/09/04 08:50:36;;;;;;;;;;;16.10;98.00;;;15.51;91.82;100866.50;4989624;28;19937;-67
2021/09/04 08:53:03;;;;;;;;;;;16.10;97.40;;;15.49;91.61;100863.94;4987542;28;19937;-67
2021/09/04 08:55:30;;;;;;;;;;;16.00;97.40;;;15.48;92.11;100862.28;4978834;28;19977;-67
2021/09/04 08:57:58;;;;;;;;;;;16.10;97.70;;;15.49;91.98;100863.13;4968668;28;20494;-67
2021/09/04 09:00:31;;;;;;;;;;;16.20;97.40;;;15.52;91.86;100863.56;4967488;28;19946;-67
2021/09/04 09:02:58;;;;;;;;;;;16.20;97.30;;;15.51;92.17;100853.63;4950812;29;20560;-67
2021/09/04 09:05:29;;;;;;;;;;;16.20;97.40;;;15.55;92.09;100863.13;4950302;28;19930;-67
2021/09/04 09:07:56;;;;;;;;;;;16.30;97.20;;;15.60;91.95;100865.25;4950774;29;19930;-68
2021/09/04 09:10:35;;;;;;;;;;;16.30;97.40;;;15.62;92.27;100865.88;4933194;29;19931;-67
2021/09/04 09:13:02;;;;;;;;;;;16.30;97.60;;;15.64;92.17;100867.34;4950782;29;20371;-68
2021/09/04 09:15:31;;;;;;;;;;;16.40;97.30;;;15.67;92.42;100870.72;4950318;29;19972;-67
2021/09/04 09:18:03;;;;;;;;;;;16.50;97.20;;;15.68;92.68;100877.91;4950928;28;19977;-67
2021/09/04 09:20:32;;;;;;;;;;;16.60;96.90;;;15.71;92.26;100872.03;4950045;28;20371;-64
2021/09/04 09:23:08;;;;;;;;;;;16.70;96.40;;;15.72;91.92;100879.19;4933371;29;19977;-65
2021/09/04 09:25:35;;;;;;;;;;;16.70;95.90;;;15.74;91.68;100874.34;4950486;29;19934;-64
2021/09/04 09:28:05;;;;;;;;;;;16.60;96.10;;;15.71;91.73;100869.28;4950653;29;20354;-65
2021/09/04 09:30:37;;;;;;;;;;;16.50;96.50;;;15.74;91.57;100871.63;4950615;29;19931;-64
2021/09/04 09:33:07;;;;;;;;;;;16.50;96.50;;;15.76;91.68;100869.50;4950329;28;20025;-64
2021/09/04 09:35:39;;;;;;;;;;;16.60;96.60;;;15.74;91.64;100872.44;4933243;29;19937;-66
2021/09/04 09:38:08;;;;;;;;;;;16.50;96.20;;;15.73;91.54;100861.69;4943509;28;19930;-66
2021/09/04 09:40:36;;;;;;;;;;;16.50;96.30;;;15.71;91.30;100864.63;4969393;28;20543;-66
2021/09/04 09:43:14;;;;;;;;;;;16.50;96.50;;;15.73;91.75;100850.69;4969181;28;19930;-66
2021/09/04 09:45:47;;;;;;;;;;;16.50;96.70;;;15.76;91.83;100853.03;4969158;28;19938;-66
2021/09/04 09:48:17;;;;;;;;;;;16.60;96.70;;;15.79;92.35;100860.88;4969344;28;19984;-66
2021/09/04 09:50:46;;;;;;;;;;;16.70;96.60;;;15.82;92.36;100857.69;4968996;28;20732;-66
2021/09/04 09:53:13;;;;;;;;;;;16.80;96.10;;;15.85;92.40;100856.44;4960020;28;20445;-66
2021/09/04 09:55:46;;;;;;;;;;;16.90;95.70;;;15.87;92.06;100854.31;4949686;29;19977;-65
2021/09/04 09:58:14;;;;;;;;;;;17.00;95.10;;;15.89;91.96;100858.53;4932334;29;20354;-66
2021/09/04 10:00:42;;;;;;;;;;;17.00;95.10;;;15.94;91.86;100866.97;4949624;28;20432;-66
2021/09/04 10:03:10;;;;;;;;;;;17.00;95.10;;;15.94;91.63;100861.50;4937526;28;20024;-66
2021/09/04 10:05:38;;;;;;;;;;;17.00;94.70;;;15.96;91.52;100864.03;4968903;28;19933;-65
2021/09/04 10:08:06;;;;;;;;;;;17.00;94.50;;;15.96;91.29;100861.28;4968803;28;19977;-66
2021/09/04 10:10:35;;;;;;;;;;;16.90;94.70;;;15.98;91.06;100879.22;4967765;28;19930;-66
2021/09/04 10:13:03;;;;;;;;;;;17.00;94.80;;;16.00;91.10;100868.88;4968862;28;19981;-66
2021/09/04 10:15:32;;;;;;;;;;;17.00;94.50;;;15.98;91.00;100860.00;4968122;28;20361;-66
2021/09/04 10:18:02;;;;;;;;;;;17.00;94.50;;;16.01;90.94;100866.97;4968957;28;19965;-66
2021/09/04 10:20:31;;;;;;;;;;;17.00;94.50;;;16.00;91.00;100866.13;4968757;28;19934;-66
2021/09/04 10:22:59;;;;;;;;;;;17.00;94.50;;;16.01;91.17;100859.59;4968792;28;19937;-66
2021/09/04 10:25:27;;;;;;;;;;;17.00;94.80;;;16.06;91.35;100860.84;4968483;28;19926;-66
2021/09/04 10:27:57;;;;;;;;;;;17.10;94.80;;;16.06;91.16;100860.84;4961593;28;20398;-66
2021/09/04 10:30:30;;;;;;;;;;;17.10;94.20;;;16.09;91.19;100863.16;4952000;28;19977;-66
2021/09/04 10:33:08;;;;;;;;;;;17.10;94.70;;;16.11;91.26;100863.81;4958544;28;19966;-66
2021/09/04 10:35:46;;;;;;;;;;;17.20;94.50;;;16.13;91.09;100858.97;4958508;28;19937;-66
2021/09/04 10:38:27;;;;;;;;;;;17.20;94.30;;;16.15;91.43;100856.84;4950521;28;19930;-66
2021/09/04 10:41:22;;;;;;;;;;;17.20;94.70;;;16.16;91.35;100853.00;4968014;28;19937;-65
2021/09/04 10:43:52;;;;;;;;;;;17.30;94.20;;;16.20;91.31;100854.28;4967931;28;19934;-66
2021/09/04 10:46:20;;;;;;;;;;;17.40;94.20;;;16.20;91.29;100860.63;4964330;28;19997;-66
2021/09/04 10:48:59;;;;;;;;;;;17.40;94.00;;;16.25;91.42;100850.91;4958716;28;20013;-66
2021/09/04 10:51:46;;;;;;;;;;;17.50;94.10;;;16.25;91.52;100840.75;4959344;28;19930;-66
2021/09/04 10:54:33;;;;;;;;;;;17.50;94.10;;;16.28;91.42;100839.47;4949271;28;19958;-66
2021/09/04 10:57:15;;;;;;;;;;;17.50;93.70;;;16.32;91.54;100833.34;4963336;28;19941;-66
2021/09/04 11:00:01;;;;;;;;;;;17.60;93.60;;;16.34;90.90;100839.47;4963365;28;19938;-66
2021/09/04 11:02:45;;;;;;;;;;;17.60;92.90;;;16.32;90.97;100841.59;4968875;28;19934;-66
2021/09/04 11:05:47;;;;;;;;;;;17.60;93.10;;;16.33;90.90;100837.78;4964514;28;19990;-66
2021/09/04 11:08:27;;;;;;;;;;;17.60;93.20;;;16.35;90.98;100841.16;4982905;28;19930;-66
2021/09/04 11:11:19;;;;;;;;;;;17.60;93.30;;;16.39;90.96;100845.19;4990770;28;19937;-66
2021/09/04 11:13:48;;;;;;;;;;;17.70;93.20;;;16.45;91.09;100839.84;4976456;28;19930;-66
2021/09/04 11:16:27;;;;;;;;;;;17.80;92.90;;;16.45;90.51;100842.59;4955152;28;19987;-65
2021/09/04 11:18:54;;;;;;;;;;;17.80;92.30;;;16.44;90.72;100836.28;4957100;28;19930;-66
2021/09/04 11:21:22;;;;;;;;;;;17.70;92.60;;;16.47;90.79;100835.84;4971247;28;19938;-66
2021/09/04 11:23:50;;;;;;;;;;;17.80;92.70;;;16.47;90.70;100835.84;4953040;28;20033;-66
2021/09/04 11:28:30;;;;;;;61.25;28.77;;;17.90;92.00;;;16.52;90.93;100836.03;5101346;27;1374963;-66
2021/09/04 11:30:58;;;;;;;67.55;32.35;;;17.90;92.40;;;16.58;91.02;100834.31;5125136;28;20054;-66
2021/09/04 11:33:26;;;;;;;67.47;32.35;;;18.00;92.40;;;16.60;91.69;100837.69;5120785;28;20043;-66